sensor_id;sensor_type;location;lat;lon;timestamp;P1;durP1;ratioP1;P2;durP2;ratioP2
19735;SDS011;32064;49.310;8.646;2023-02-28T00:01:19;1.83;;;1.40;;
19735;SDS011;32064;49.310;8.646;2023-02-28T00:03:45;2.03;;;1.40;;
19735;SDS011;32064;49.310;8.646;2023-02-28T00:06:10;2.93;;;1.50;;
19735;SDS011;32064;49.310;8.646;2023-02-28T00:08:36;2.47;;;1.30;;
19735;SDS011;32064;49.310;8.646;2023-02-28T00:11:03;2.97;;;1.70;;
19735;SDS011;32064;49.310;8.646;2023-02-28T00:13:31;3.87;;;1.70;;
19735;SDS011;32064;49.310;8.646;2023-02-28T00:16:03;3.03;;;1.40;;
19735;SDS011;32064;49.310;8.646;2023-02-28T00:18:30;1.80;;;1.53;;
19735;SDS011;32064;49.310;8.646;2023-02-28T00:20:56;1.60;;;1.30;;
19735;SDS011;32064;49.310;8.646;2023-02-28T00:23:22;2.67;;;1.47;;
19735;SDS011;32064;49.310;8.646;2023-02-28T00:25:48;1.73;;;1.47;;
19735;SDS011;32064;49.310;8.646;2023-02-28T00:28:13;3.57;;;1.70;;
19735;SDS011;32064;49.310;8.646;2023-02-28T00:30:39;1.70;;;1.30;;
19735;SDS011;32064;49.310;8.646;2023-02-28T00:33:04;1.73;;;1.60;;
19735;SDS011;32064;49.310;8.646;2023-02-28T00:35:30;1.63;;;1.37;;
19735;SDS011;32064;49.310;8.646;2023-02-28T00:37:55;2.23;;;1.50;;
19735;SDS011;32064;49.310;8.646;2023-02-28T00:40:21;2.50;;;1.67;;
19735;SDS011;32064;49.310;8.646;2023-02-28T00:42:46;2.90;;;1.77;;
19735;SDS011;32064;49.310;8.646;2023-02-28T00:45:11;3.77;;;1.63;;
19735;SDS011;32064;49.310;8.646;2023-02-28T00:47:37;2.77;;;1.60;;
19735;SDS011;32064;49.310;8.646;2023-02-28T00:50:03;2.00;;;1.60;;
19735;SDS011;32064;49.310;8.646;2023-02-28T00:52:29;2.13;;;1.93;;
19735;SDS011;32064;49.310;8.646;2023-02-28T00:54:54;1.83;;;1.63;;
19735;SDS011;32064;49.310;8.646;2023-02-28T00:57:20;2.10;;;1.90;;
19735;SDS011;32064;49.310;8.646;2023-02-28T00:59:45;1.60;;;1.50;;
19735;SDS011;32064;49.310;8.646;2023-02-28T01:02:12;2.53;;;1.60;;
19735;SDS011;32064;49.310;8.646;2023-02-28T01:04:37;2.80;;;1.97;;
19735;SDS011;32064;49.310;8.646;2023-02-28T01:07:03;1.93;;;1.67;;
19735;SDS011;32064;49.310;8.646;2023-02-28T01:09:28;2.53;;;1.53;;
19735;SDS011;32064;49.310;8.646;2023-02-28T01:11:54;3.23;;;1.70;;
19735;SDS011;32064;49.310;8.646;2023-02-28T01:14:19;4.90;;;1.77;;
19735;SDS011;32064;49.310;8.646;2023-02-28T01:16:45;2.37;;;1.77;;
19735;SDS011;32064;49.310;8.646;2023-02-28T01:19:10;1.83;;;1.63;;
19735;SDS011;32064;49.310;8.646;2023-02-28T01:21:36;2.70;;;1.70;;
19735;SDS011;32064;49.310;8.646;2023-02-28T01:24:02;4.67;;;1.80;;
19735;SDS011;32064;49.310;8.646;2023-02-28T01:26:28;2.10;;;1.70;;
19735;SDS011;32064;49.310;8.646;2023-02-28T01:28:54;5.07;;;1.63;;
19735;SDS011;32064;49.310;8.646;2023-02-28T01:31:20;2.80;;;2.20;;
19735;SDS011;32064;49.310;8.646;2023-02-28T01:33:46;2.23;;;1.87;;
19735;SDS011;32064;49.310;8.646;2023-02-28T01:36:16;2.80;;;1.97;;
19735;SDS011;32064;49.310;8.646;2023-02-28T01:38:44;3.93;;;1.70;;
19735;SDS011;32064;49.310;8.646;2023-02-28T01:41:14;2.50;;;1.90;;
19735;SDS011;32064;49.310;8.646;2023-02-28T01:46:10;2.13;;;1.73;;
19735;SDS011;32064;49.310;8.646;2023-02-28T01:48:46;1.73;;;1.60;;
19735;SDS011;32064;49.310;8.646;2023-02-28T01:51:17;2.83;;;2.07;;
19735;SDS011;32064;49.310;8.646;2023-02-28T01:53:56;3.17;;;1.73;;
19735;SDS011;32064;49.310;8.646;2023-02-28T01:56:29;2.47;;;2.27;;
19735;SDS011;32064;49.310;8.646;2023-02-28T01:58:56;2.27;;;1.90;;
19735;SDS011;32064;49.310;8.646;2023-02-28T02:01:22;2.17;;;1.80;;
19735;SDS011;32064;49.310;8.646;2023-02-28T02:03:51;2.87;;;2.00;;
19735;SDS011;32064;49.310;8.646;2023-02-28T02:06:23;2.90;;;1.63;;
19735;SDS011;32064;49.310;8.646;2023-02-28T02:08:50;3.20;;;2.10;;
19735;SDS011;32064;49.310;8.646;2023-02-28T02:11:18;2.17;;;1.47;;
19735;SDS011;32064;49.310;8.646;2023-02-28T02:16:40;4.13;;;2.00;;
19735;SDS011;32064;49.310;8.646;2023-02-28T02:27:33;2.97;;;2.00;;
19735;SDS011;32064;49.310;8.646;2023-02-28T02:36:27;2.27;;;1.83;;
19735;SDS011;32064;49.310;8.646;2023-02-28T02:39:14;2.23;;;2.00;;
19735;SDS011;32064;49.310;8.646;2023-02-28T02:41:53;2.97;;;2.10;;
19735;SDS011;32064;49.310;8.646;2023-02-28T02:44:30;5.63;;;2.30;;
19735;SDS011;32064;49.310;8.646;2023-02-28T02:47:09;2.53;;;2.00;;
19735;SDS011;32064;49.310;8.646;2023-02-28T02:49:38;2.47;;;2.07;;
19735;SDS011;32064;49.310;8.646;2023-02-28T02:52:07;3.23;;;2.43;;
19735;SDS011;32064;49.310;8.646;2023-02-28T02:54:37;3.80;;;2.33;;
19735;SDS011;32064;49.310;8.646;2023-02-28T02:57:13;3.93;;;2.60;;
19735;SDS011;32064;49.310;8.646;2023-02-28T02:59:44;2.53;;;2.10;;
19735;SDS011;32064;49.310;8.646;2023-02-28T03:02:11;4.47;;;1.70;;
19735;SDS011;32064;49.310;8.646;2023-02-28T03:04:43;6.30;;;2.00;;
19735;SDS011;32064;49.310;8.646;2023-02-28T03:07:13;2.77;;;2.10;;
19735;SDS011;32064;49.310;8.646;2023-02-28T03:09:39;2.33;;;1.90;;
19735;SDS011;32064;49.310;8.646;2023-02-28T03:12:06;2.90;;;2.30;;
19735;SDS011;32064;49.310;8.646;2023-02-28T03:17:33;3.07;;;2.20;;
19735;SDS011;32064;49.310;8.646;2023-02-28T03:23:42;2.93;;;2.13;;
19735;SDS011;32064;49.310;8.646;2023-02-28T03:26:15;2.33;;;2.13;;
19735;SDS011;32064;49.310;8.646;2023-02-28T03:31:50;3.47;;;2.30;;
19735;SDS011;32064;49.310;8.646;2023-02-28T03:34:25;3.03;;;2.47;;
19735;SDS011;32064;49.310;8.646;2023-02-28T03:37:02;5.07;;;2.50;;
19735;SDS011;32064;49.310;8.646;2023-02-28T03:39:35;3.10;;;2.30;;
19735;SDS011;32064;49.310;8.646;2023-02-28T03:42:11;5.57;;;2.70;;
19735;SDS011;32064;49.310;8.646;2023-02-28T03:44:46;3.10;;;2.37;;
19735;SDS011;32064;49.310;8.646;2023-02-28T03:47:16;4.03;;;2.60;;
19735;SDS011;32064;49.310;8.646;2023-02-28T03:49:50;3.53;;;2.17;;
19735;SDS011;32064;49.310;8.646;2023-02-28T03:52:20;3.73;;;2.27;;
19735;SDS011;32064;49.310;8.646;2023-02-28T03:54:51;2.90;;;2.27;;
19735;SDS011;32064;49.310;8.646;2023-02-28T03:57:28;3.30;;;2.30;;
19735;SDS011;32064;49.310;8.646;2023-02-28T04:00:12;3.60;;;2.50;;
19735;SDS011;32064;49.310;8.646;2023-02-28T04:02:41;3.03;;;2.40;;
19735;SDS011;32064;49.310;8.646;2023-02-28T04:05:07;4.57;;;2.43;;
19735;SDS011;32064;49.310;8.646;2023-02-28T04:07:33;4.10;;;2.83;;
19735;SDS011;32064;49.310;8.646;2023-02-28T04:09:58;4.00;;;2.40;;
19735;SDS011;32064;49.310;8.646;2023-02-28T04:12:24;3.83;;;2.70;;
19735;SDS011;32064;49.310;8.646;2023-02-28T04:14:50;3.50;;;2.30;;
19735;SDS011;32064;49.310;8.646;2023-02-28T04:17:16;3.67;;;2.47;;
19735;SDS011;32064;49.310;8.646;2023-02-28T04:19:42;2.70;;;2.47;;
19735;SDS011;32064;49.310;8.646;2023-02-28T04:22:08;5.17;;;2.87;;
19735;SDS011;32064;49.310;8.646;2023-02-28T04:24:34;2.80;;;2.40;;
19735;SDS011;32064;49.310;8.646;2023-02-28T04:27:00;3.97;;;2.77;;
19735;SDS011;32064;49.310;8.646;2023-02-28T04:29:27;3.40;;;2.60;;
19735;SDS011;32064;49.310;8.646;2023-02-28T04:31:54;3.70;;;2.77;;
19735;SDS011;32064;49.310;8.646;2023-02-28T04:34:22;3.87;;;2.43;;
19735;SDS011;32064;49.310;8.646;2023-02-28T04:36:48;3.93;;;3.03;;
19735;SDS011;32064;49.310;8.646;2023-02-28T04:39:16;3.97;;;2.90;;
19735;SDS011;32064;49.310;8.646;2023-02-28T04:41:43;2.90;;;2.60;;
19735;SDS011;32064;49.310;8.646;2023-02-28T04:44:09;5.17;;;3.23;;
19735;SDS011;32064;49.310;8.646;2023-02-28T04:46:34;3.67;;;2.80;;
19735;SDS011;32064;49.310;8.646;2023-02-28T04:49:00;3.77;;;2.90;;
19735;SDS011;32064;49.310;8.646;2023-02-28T04:51:25;4.57;;;2.63;;
19735;SDS011;32064;49.310;8.646;2023-02-28T04:53:51;3.23;;;2.53;;
19735;SDS011;32064;49.310;8.646;2023-02-28T04:56:17;3.27;;;2.70;;
19735;SDS011;32064;49.310;8.646;2023-02-28T04:58:43;4.60;;;3.00;;
19735;SDS011;32064;49.310;8.646;2023-02-28T05:01:26;4.63;;;3.47;;
19735;SDS011;32064;49.310;8.646;2023-02-28T05:03:53;3.40;;;2.87;;
19735;SDS011;32064;49.310;8.646;2023-02-28T05:06:20;3.00;;;2.70;;
19735;SDS011;32064;49.310;8.646;2023-02-28T05:08:48;3.27;;;2.97;;
19735;SDS011;32064;49.310;8.646;2023-02-28T05:11:22;3.27;;;2.90;;
19735;SDS011;32064;49.310;8.646;2023-02-28T05:13:50;4.53;;;3.20;;
19735;SDS011;32064;49.310;8.646;2023-02-28T05:16:18;3.73;;;2.67;;
19735;SDS011;32064;49.310;8.646;2023-02-28T05:18:44;3.40;;;3.10;;
19735;SDS011;32064;49.310;8.646;2023-02-28T05:21:21;4.67;;;3.00;;
19735;SDS011;32064;49.310;8.646;2023-02-28T05:23:48;3.27;;;2.90;;
19735;SDS011;32064;49.310;8.646;2023-02-28T05:26:14;3.20;;;2.70;;
19735;SDS011;32064;49.310;8.646;2023-02-28T05:28:39;3.97;;;2.87;;
19735;SDS011;32064;49.310;8.646;2023-02-28T05:31:04;2.80;;;2.30;;
19735;SDS011;32064;49.310;8.646;2023-02-28T05:33:30;4.47;;;2.70;;
19735;SDS011;32064;49.310;8.646;2023-02-28T05:35:55;3.50;;;2.93;;
19735;SDS011;32064;49.310;8.646;2023-02-28T05:38:21;4.87;;;3.27;;
19735;SDS011;32064;49.310;8.646;2023-02-28T05:40:46;4.23;;;2.83;;
19735;SDS011;32064;49.310;8.646;2023-02-28T05:43:11;4.03;;;2.80;;
19735;SDS011;32064;49.310;8.646;2023-02-28T05:45:37;3.70;;;2.97;;
19735;SDS011;32064;49.310;8.646;2023-02-28T05:48:02;3.07;;;2.70;;
19735;SDS011;32064;49.310;8.646;2023-02-28T05:50:28;3.10;;;2.80;;
19735;SDS011;32064;49.310;8.646;2023-02-28T05:52:53;5.83;;;3.03;;
19735;SDS011;32064;49.310;8.646;2023-02-28T05:55:19;4.53;;;2.90;;
19735;SDS011;32064;49.310;8.646;2023-02-28T05:57:44;3.47;;;3.03;;
19735;SDS011;32064;49.310;8.646;2023-02-28T06:00:10;2.90;;;2.60;;
19735;SDS011;32064;49.310;8.646;2023-02-28T06:02:38;3.30;;;2.83;;
19735;SDS011;32064;49.310;8.646;2023-02-28T06:05:05;4.53;;;2.97;;
19735;SDS011;32064;49.310;8.646;2023-02-28T06:07:30;3.37;;;2.83;;
19735;SDS011;32064;49.310;8.646;2023-02-28T06:09:56;3.50;;;3.00;;
19735;SDS011;32064;49.310;8.646;2023-02-28T06:12:21;3.60;;;2.90;;
19735;SDS011;32064;49.310;8.646;2023-02-28T06:14:46;4.63;;;3.27;;
19735;SDS011;32064;49.310;8.646;2023-02-28T06:17:12;5.53;;;3.90;;
19735;SDS011;32064;49.310;8.646;2023-02-28T06:19:38;3.57;;;3.13;;
19735;SDS011;32064;49.310;8.646;2023-02-28T06:22:06;4.63;;;2.83;;
19735;SDS011;32064;49.310;8.646;2023-02-28T06:24:31;3.80;;;2.70;;
19735;SDS011;32064;49.310;8.646;2023-02-28T06:26:57;4.33;;;3.17;;
19735;SDS011;32064;49.310;8.646;2023-02-28T06:29:30;4.23;;;2.93;;
19735;SDS011;32064;49.310;8.646;2023-02-28T06:31:56;5.70;;;3.13;;
19735;SDS011;32064;49.310;8.646;2023-02-28T06:34:21;3.47;;;2.90;;
19735;SDS011;32064;49.310;8.646;2023-02-28T06:36:47;5.37;;;3.00;;
19735;SDS011;32064;49.310;8.646;2023-02-28T06:39:16;3.67;;;3.00;;
19735;SDS011;32064;49.310;8.646;2023-02-28T06:41:42;4.10;;;3.23;;
19735;SDS011;32064;49.310;8.646;2023-02-28T06:44:14;4.03;;;3.10;;
19735;SDS011;32064;49.310;8.646;2023-02-28T06:46:41;4.67;;;3.30;;
19735;SDS011;32064;49.310;8.646;2023-02-28T06:49:07;4.07;;;3.50;;
19735;SDS011;32064;49.310;8.646;2023-02-28T06:51:34;3.93;;;3.00;;
19735;SDS011;32064;49.310;8.646;2023-02-28T06:54:00;3.43;;;3.07;;
19735;SDS011;32064;49.310;8.646;2023-02-28T06:56:26;4.03;;;3.00;;
19735;SDS011;32064;49.310;8.646;2023-02-28T06:58:51;3.77;;;2.93;;
19735;SDS011;32064;49.310;8.646;2023-02-28T07:01:18;4.83;;;3.40;;
19735;SDS011;32064;49.310;8.646;2023-02-28T07:03:44;3.93;;;3.10;;
19735;SDS011;32064;49.310;8.646;2023-02-28T07:06:10;5.03;;;3.33;;
19735;SDS011;32064;49.310;8.646;2023-02-28T07:08:35;5.80;;;3.50;;
19735;SDS011;32064;49.310;8.646;2023-02-28T07:11:01;8.97;;;5.77;;
19735;SDS011;32064;49.310;8.646;2023-02-28T07:13:27;4.43;;;3.50;;
19735;SDS011;32064;49.310;8.646;2023-02-28T07:15:59;4.33;;;3.30;;
19735;SDS011;32064;49.310;8.646;2023-02-28T07:18:29;7.43;;;3.63;;
19735;SDS011;32064;49.310;8.646;2023-02-28T07:20:55;3.30;;;3.00;;
19735;SDS011;32064;49.310;8.646;2023-02-28T07:23:21;4.60;;;3.50;;
19735;SDS011;32064;49.310;8.646;2023-02-28T07:25:47;3.80;;;3.40;;
19735;SDS011;32064;49.310;8.646;2023-02-28T07:28:14;3.90;;;3.27;;
19735;SDS011;32064;49.310;8.646;2023-02-28T07:30:40;4.57;;;3.67;;
19735;SDS011;32064;49.310;8.646;2023-02-28T07:33:06;4.77;;;3.40;;
19735;SDS011;32064;49.310;8.646;2023-02-28T07:35:31;5.03;;;3.90;;
19735;SDS011;32064;49.310;8.646;2023-02-28T07:37:57;5.63;;;3.47;;
19735;SDS011;32064;49.310;8.646;2023-02-28T07:40:23;4.00;;;3.23;;
19735;SDS011;32064;49.310;8.646;2023-02-28T07:42:49;5.00;;;3.40;;
19735;SDS011;32064;49.310;8.646;2023-02-28T07:45:14;5.67;;;3.57;;
19735;SDS011;32064;49.310;8.646;2023-02-28T07:47:40;4.33;;;3.70;;
19735;SDS011;32064;49.310;8.646;2023-02-28T07:50:07;5.23;;;3.53;;
19735;SDS011;32064;49.310;8.646;2023-02-28T07:52:35;6.67;;;3.90;;
19735;SDS011;32064;49.310;8.646;2023-02-28T07:55:02;5.60;;;4.20;;
19735;SDS011;32064;49.310;8.646;2023-02-28T07:57:28;5.80;;;4.27;;
19735;SDS011;32064;49.310;8.646;2023-02-28T07:59:53;5.30;;;4.10;;
19735;SDS011;32064;49.310;8.646;2023-02-28T08:02:19;6.03;;;3.87;;
19735;SDS011;32064;49.310;8.646;2023-02-28T08:04:44;5.77;;;4.10;;
19735;SDS011;32064;49.310;8.646;2023-02-28T08:07:11;4.90;;;3.70;;
19735;SDS011;32064;49.310;8.646;2023-02-28T08:09:41;7.33;;;4.20;;
19735;SDS011;32064;49.310;8.646;2023-02-28T08:12:07;5.53;;;3.73;;
19735;SDS011;32064;49.310;8.646;2023-02-28T08:14:34;4.50;;;3.87;;
19735;SDS011;32064;49.310;8.646;2023-02-28T08:16:59;4.80;;;4.10;;
19735;SDS011;32064;49.310;8.646;2023-02-28T08:19:25;5.00;;;4.00;;
19735;SDS011;32064;49.310;8.646;2023-02-28T08:21:50;6.60;;;3.97;;
19735;SDS011;32064;49.310;8.646;2023-02-28T08:24:16;5.67;;;3.77;;
19735;SDS011;32064;49.310;8.646;2023-02-28T08:26:41;5.87;;;4.03;;
19735;SDS011;32064;49.310;8.646;2023-02-28T08:29:07;4.70;;;4.03;;
19735;SDS011;32064;49.310;8.646;2023-02-28T08:31:32;6.20;;;4.30;;
19735;SDS011;32064;49.310;8.646;2023-02-28T08:33:58;6.60;;;3.70;;
19735;SDS011;32064;49.310;8.646;2023-02-28T08:36:24;4.87;;;4.00;;
19735;SDS011;32064;49.310;8.646;2023-02-28T08:38:51;7.23;;;4.23;;
19735;SDS011;32064;49.310;8.646;2023-02-28T08:41:16;5.00;;;4.20;;
19735;SDS011;32064;49.310;8.646;2023-02-28T08:43:41;4.33;;;3.93;;
19735;SDS011;32064;49.310;8.646;2023-02-28T08:46:07;4.97;;;4.00;;
19735;SDS011;32064;49.310;8.646;2023-02-28T08:48:36;5.73;;;4.37;;
19735;SDS011;32064;49.310;8.646;2023-02-28T08:51:06;4.23;;;3.83;;
19735;SDS011;32064;49.310;8.646;2023-02-28T08:53:38;4.33;;;3.50;;
19735;SDS011;32064;49.310;8.646;2023-02-28T08:56:05;4.83;;;4.20;;
19735;SDS011;32064;49.310;8.646;2023-02-28T08:58:32;4.33;;;3.93;;
19735;SDS011;32064;49.310;8.646;2023-02-28T09:00:59;4.77;;;3.83;;
19735;SDS011;32064;49.310;8.646;2023-02-28T09:03:26;8.67;;;4.33;;
19735;SDS011;32064;49.310;8.646;2023-02-28T09:05:58;6.67;;;4.40;;
19735;SDS011;32064;49.310;8.646;2023-02-28T09:08:25;4.53;;;4.13;;
19735;SDS011;32064;49.310;8.646;2023-02-28T09:10:51;4.53;;;3.80;;
19735;SDS011;32064;49.310;8.646;2023-02-28T09:13:17;4.37;;;3.83;;
19735;SDS011;32064;49.310;8.646;2023-02-28T09:15:44;8.20;;;4.30;;
19735;SDS011;32064;49.310;8.646;2023-02-28T09:18:10;4.07;;;3.67;;
19735;SDS011;32064;49.310;8.646;2023-02-28T09:20:39;8.17;;;4.30;;
19735;SDS011;32064;49.310;8.646;2023-02-28T09:23:08;6.60;;;4.10;;
19735;SDS011;32064;49.310;8.646;2023-02-28T09:25:35;4.80;;;3.97;;
19735;SDS011;32064;49.310;8.646;2023-02-28T09:28:00;5.00;;;4.37;;
19735;SDS011;32064;49.310;8.646;2023-02-28T09:30:27;7.73;;;4.40;;
19735;SDS011;32064;49.310;8.646;2023-02-28T09:32:52;5.70;;;4.27;;
19735;SDS011;32064;49.310;8.646;2023-02-28T09:35:19;7.23;;;4.13;;
19735;SDS011;32064;49.310;8.646;2023-02-28T09:37:47;7.13;;;4.77;;
19735;SDS011;32064;49.310;8.646;2023-02-28T09:40:16;6.93;;;4.60;;
19735;SDS011;32064;49.310;8.646;2023-02-28T09:42:44;5.23;;;4.27;;
19735;SDS011;32064;49.310;8.646;2023-02-28T09:45:24;4.67;;;4.17;;
19735;SDS011;32064;49.310;8.646;2023-02-28T09:47:56;5.50;;;4.30;;
19735;SDS011;32064;49.310;8.646;2023-02-28T09:52:55;5.30;;;4.40;;
19735;SDS011;32064;49.310;8.646;2023-02-28T09:58:10;6.30;;;4.27;;
19735;SDS011;32064;49.310;8.646;2023-02-28T10:00:45;5.00;;;4.18;;
19735;SDS011;32064;49.310;8.646;2023-02-28T10:03:30;6.57;;;4.30;;
19735;SDS011;32064;49.310;8.646;2023-02-28T10:09:04;5.57;;;4.38;;
19735;SDS011;32064;49.310;8.646;2023-02-28T10:11:38;8.45;;;4.60;;
19735;SDS011;32064;49.310;8.646;2023-02-28T10:14:15;5.00;;;4.18;;
19735;SDS011;32064;49.310;8.646;2023-02-28T10:22:16;5.35;;;4.68;;
19735;SDS011;32064;49.310;8.646;2023-02-28T10:24:52;6.22;;;5.07;;
19735;SDS011;32064;49.310;8.646;2023-02-28T10:27:25;5.68;;;4.78;;
19735;SDS011;32064;49.310;8.646;2023-02-28T10:29:55;6.43;;;4.30;;
19735;SDS011;32064;49.310;8.646;2023-02-28T10:32:26;5.10;;;4.40;;
19735;SDS011;32064;49.310;8.646;2023-02-28T10:35:00;5.60;;;4.95;;
19735;SDS011;32064;49.310;8.646;2023-02-28T10:37:32;6.72;;;4.53;;
19735;SDS011;32064;49.310;8.646;2023-02-28T10:40:03;5.60;;;4.70;;
19735;SDS011;32064;49.310;8.646;2023-02-28T10:42:31;5.60;;;4.43;;
19735;SDS011;32064;49.310;8.646;2023-02-28T10:45:13;5.43;;;4.85;;
19735;SDS011;32064;49.310;8.646;2023-02-28T10:48:00;5.60;;;4.80;;
19735;SDS011;32064;49.310;8.646;2023-02-28T10:50:34;5.18;;;4.63;;
19735;SDS011;32064;49.310;8.646;2023-02-28T10:58:51;5.57;;;4.60;;
19735;SDS011;32064;49.310;8.646;2023-02-28T11:06:47;8.25;;;4.88;;
19735;SDS011;32064;49.310;8.646;2023-02-28T11:09:26;7.55;;;5.18;;
19735;SDS011;32064;49.310;8.646;2023-02-28T11:11:55;6.05;;;4.45;;
19735;SDS011;32064;49.310;8.646;2023-02-28T11:16:51;5.70;;;5.07;;
19735;SDS011;32064;49.310;8.646;2023-02-28T11:19:28;5.43;;;4.93;;
19735;SDS011;32064;49.310;8.646;2023-02-28T11:22:04;6.50;;;5.13;;
19735;SDS011;32064;49.310;8.646;2023-02-28T11:24:35;6.50;;;4.93;;
19735;SDS011;32064;49.310;8.646;2023-02-28T11:27:14;5.80;;;5.20;;
19735;SDS011;32064;49.310;8.646;2023-02-28T11:29:50;6.03;;;5.43;;
19735;SDS011;32064;49.310;8.646;2023-02-28T11:32:18;5.97;;;5.10;;
19735;SDS011;32064;49.310;8.646;2023-02-28T11:34:45;6.20;;;4.47;;
19735;SDS011;32064;49.310;8.646;2023-02-28T11:37:24;6.07;;;5.00;;
19735;SDS011;32064;49.310;8.646;2023-02-28T11:39:52;5.70;;;5.10;;
19735;SDS011;32064;49.310;8.646;2023-02-28T11:42:30;5.33;;;4.83;;
19735;SDS011;32064;49.310;8.646;2023-02-28T11:48:01;7.43;;;5.30;;
19735;SDS011;32064;49.310;8.646;2023-02-28T11:53:30;5.63;;;5.03;;
19735;SDS011;32064;49.310;8.646;2023-02-28T12:07:15;6.65;;;5.07;;
19735;SDS011;32064;49.310;8.646;2023-02-28T12:09:57;5.70;;;5.15;;
19735;SDS011;32064;49.310;8.646;2023-02-28T12:12:37;9.07;;;5.47;;
19735;SDS011;32064;49.310;8.646;2023-02-28T12:23:36;6.93;;;5.50;;
19735;SDS011;32064;49.310;8.646;2023-02-28T12:26:43;5.70;;;5.20;;
19735;SDS011;32064;49.310;8.646;2023-02-28T12:29:21;5.72;;;5.13;;
19735;SDS011;32064;49.310;8.646;2023-02-28T12:31:53;6.35;;;5.45;;
19735;SDS011;32064;49.310;8.646;2023-02-28T12:34:28;7.18;;;5.45;;
19735;SDS011;32064;49.310;8.646;2023-02-28T12:37:00;7.30;;;5.47;;
19735;SDS011;32064;49.310;8.646;2023-02-28T12:39:33;10.25;;;5.38;;
19735;SDS011;32064;49.310;8.646;2023-02-28T12:42:07;5.85;;;5.25;;
19735;SDS011;32064;49.310;8.646;2023-02-28T12:44:43;6.30;;;5.68;;
19735;SDS011;32064;49.310;8.646;2023-02-28T12:47:17;6.70;;;5.40;;
19735;SDS011;32064;49.310;8.646;2023-02-28T12:52:16;6.00;;;5.40;;
19735;SDS011;32064;49.310;8.646;2023-02-28T12:54:52;8.68;;;5.88;;
19735;SDS011;32064;49.310;8.646;2023-02-28T13:00:19;5.82;;;5.32;;
19735;SDS011;32064;49.310;8.646;2023-02-28T13:05:46;6.85;;;5.90;;
19735;SDS011;32064;49.310;8.646;2023-02-28T13:11:06;6.75;;;5.60;;
19735;SDS011;32064;49.310;8.646;2023-02-28T13:13:31;6.00;;;5.40;;
19735;SDS011;32064;49.310;8.646;2023-02-28T13:16:07;7.20;;;5.80;;
19735;SDS011;32064;49.310;8.646;2023-02-28T13:18:36;6.28;;;5.68;;
19735;SDS011;32064;49.310;8.646;2023-02-28T13:21:06;7.40;;;5.55;;
19735;SDS011;32064;49.310;8.646;2023-02-28T13:23:37;5.85;;;5.25;;
19735;SDS011;32064;49.310;8.646;2023-02-28T13:26:03;6.10;;;5.47;;
19735;SDS011;32064;49.310;8.646;2023-02-28T13:31:18;6.50;;;5.75;;
19735;SDS011;32064;49.310;8.646;2023-02-28T13:38:44;7.10;;;5.63;;
19735;SDS011;32064;49.310;8.646;2023-02-28T13:46:30;6.70;;;5.97;;
19735;SDS011;32064;49.310;8.646;2023-02-28T13:49:17;7.00;;;5.70;;
19735;SDS011;32064;49.310;8.646;2023-02-28T13:57:37;6.33;;;5.13;;
19735;SDS011;32064;49.310;8.646;2023-02-28T14:05:44;6.13;;;5.60;;
19735;SDS011;32064;49.310;8.646;2023-02-28T14:08:12;6.80;;;6.20;;
19735;SDS011;32064;49.310;8.646;2023-02-28T14:10:46;6.70;;;6.00;;
19735;SDS011;32064;49.310;8.646;2023-02-28T14:16:05;8.23;;;6.27;;
19735;SDS011;32064;49.310;8.646;2023-02-28T14:18:35;6.93;;;6.20;;
19735;SDS011;32064;49.310;8.646;2023-02-28T14:21:28;6.90;;;6.20;;
19735;SDS011;32064;49.310;8.646;2023-02-28T14:24:02;8.27;;;6.33;;
19735;SDS011;32064;49.310;8.646;2023-02-28T14:27:00;7.97;;;5.93;;
19735;SDS011;32064;49.310;8.646;2023-02-28T14:35:17;6.50;;;5.80;;
19735;SDS011;32064;49.310;8.646;2023-02-28T14:37:51;6.67;;;5.90;;
19735;SDS011;32064;49.310;8.646;2023-02-28T14:40:24;7.77;;;5.80;;
19735;SDS011;32064;49.310;8.646;2023-02-28T14:42:55;8.90;;;5.37;;
19735;SDS011;32064;49.310;8.646;2023-02-28T14:45:24;6.33;;;5.43;;
19735;SDS011;32064;49.310;8.646;2023-02-28T14:47:54;8.30;;;5.53;;
19735;SDS011;32064;49.310;8.646;2023-02-28T14:50:20;6.60;;;5.20;;
19735;SDS011;32064;49.310;8.646;2023-02-28T14:52:50;6.17;;;5.43;;
19735;SDS011;32064;49.310;8.646;2023-02-28T14:55:18;6.73;;;6.00;;
19735;SDS011;32064;49.310;8.646;2023-02-28T14:57:59;6.33;;;5.73;;
19735;SDS011;32064;49.310;8.646;2023-02-28T15:00:29;8.00;;;5.80;;
19735;SDS011;32064;49.310;8.646;2023-02-28T15:02:56;7.20;;;5.93;;
19735;SDS011;32064;49.310;8.646;2023-02-28T15:05:30;7.40;;;5.47;;
19735;SDS011;32064;49.310;8.646;2023-02-28T15:08:14;7.27;;;5.57;;
19735;SDS011;32064;49.310;8.646;2023-02-28T15:10:44;8.23;;;6.23;;
19735;SDS011;32064;49.310;8.646;2023-02-28T15:13:15;7.37;;;5.57;;
19735;SDS011;32064;49.310;8.646;2023-02-28T15:16:04;6.83;;;6.10;;
19735;SDS011;32064;49.310;8.646;2023-02-28T15:23:56;9.17;;;6.37;;
19735;SDS011;32064;49.310;8.646;2023-02-28T15:26:30;15.27;;;5.90;;
19735;SDS011;32064;49.310;8.646;2023-02-28T15:28:59;6.70;;;5.80;;
19735;SDS011;32064;49.310;8.646;2023-02-28T15:31:40;10.10;;;6.03;;
19735;SDS011;32064;49.310;8.646;2023-02-28T15:34:17;6.13;;;5.53;;
19735;SDS011;32064;49.310;8.646;2023-02-28T15:36:45;7.77;;;5.47;;
19735;SDS011;32064;49.310;8.646;2023-02-28T15:39:18;6.23;;;5.63;;
19735;SDS011;32064;49.310;8.646;2023-02-28T15:41:52;6.03;;;5.33;;
19735;SDS011;32064;49.310;8.646;2023-02-28T15:44:34;9.77;;;6.20;;
19735;SDS011;32064;49.310;8.646;2023-02-28T15:47:01;8.07;;;6.07;;
19735;SDS011;32064;49.310;8.646;2023-02-28T15:49:45;8.13;;;5.73;;
19735;SDS011;32064;49.310;8.646;2023-02-28T15:52:14;7.60;;;6.43;;
19735;SDS011;32064;49.310;8.646;2023-02-28T15:54:42;6.67;;;5.93;;
19735;SDS011;32064;49.310;8.646;2023-02-28T15:57:22;6.50;;;5.80;;
19735;SDS011;32064;49.310;8.646;2023-02-28T15:59:54;6.93;;;6.00;;
19735;SDS011;32064;49.310;8.646;2023-02-28T16:02:22;7.20;;;6.10;;
19735;SDS011;32064;49.310;8.646;2023-02-28T16:07:43;6.57;;;5.73;;
19735;SDS011;32064;49.310;8.646;2023-02-28T16:10:09;7.97;;;5.93;;
19735;SDS011;32064;49.310;8.646;2023-02-28T16:12:39;8.03;;;5.93;;
19735;SDS011;32064;49.310;8.646;2023-02-28T16:15:06;7.13;;;6.20;;
19735;SDS011;32064;49.310;8.646;2023-02-28T16:17:41;6.50;;;5.57;;
19735;SDS011;32064;49.310;8.646;2023-02-28T16:20:14;6.20;;;5.60;;
19735;SDS011;32064;49.310;8.646;2023-02-28T16:22:39;6.80;;;6.10;;
19735;SDS011;32064;49.310;8.646;2023-02-28T16:25:07;9.10;;;6.30;;
19735;SDS011;32064;49.310;8.646;2023-02-28T16:27:36;6.93;;;5.90;;
19735;SDS011;32064;49.310;8.646;2023-02-28T16:30:03;9.50;;;6.47;;
19735;SDS011;32064;49.310;8.646;2023-02-28T16:32:31;9.20;;;5.90;;
19735;SDS011;32064;49.310;8.646;2023-02-28T16:34:59;9.47;;;6.47;;
19735;SDS011;32064;49.310;8.646;2023-02-28T16:37:25;6.57;;;5.73;;
19735;SDS011;32064;49.310;8.646;2023-02-28T16:39:52;7.47;;;5.63;;
19735;SDS011;32064;49.310;8.646;2023-02-28T16:42:22;6.00;;;5.40;;
19735;SDS011;32064;49.310;8.646;2023-02-28T16:44:50;8.27;;;6.17;;
19735;SDS011;32064;49.310;8.646;2023-02-28T16:47:17;9.30;;;6.07;;
19735;SDS011;32064;49.310;8.646;2023-02-28T16:49:43;6.33;;;5.60;;
19735;SDS011;32064;49.310;8.646;2023-02-28T16:52:09;8.77;;;6.77;;
19735;SDS011;32064;49.310;8.646;2023-02-28T16:54:36;6.70;;;6.00;;
19735;SDS011;32064;49.310;8.646;2023-02-28T16:57:03;8.47;;;6.20;;
19735;SDS011;32064;49.310;8.646;2023-02-28T16:59:31;6.93;;;5.63;;
19735;SDS011;32064;49.310;8.646;2023-02-28T17:01:57;8.93;;;5.80;;
19735;SDS011;32064;49.310;8.646;2023-02-28T17:04:23;7.90;;;6.07;;
19735;SDS011;32064;49.310;8.646;2023-02-28T17:06:52;10.07;;;6.13;;
19735;SDS011;32064;49.310;8.646;2023-02-28T17:09:19;7.40;;;5.70;;
19735;SDS011;32064;49.310;8.646;2023-02-28T17:11:46;9.93;;;5.60;;
19735;SDS011;32064;49.310;8.646;2023-02-28T17:14:12;8.60;;;5.70;;
19735;SDS011;32064;49.310;8.646;2023-02-28T17:16:38;13.33;;;6.40;;